Time;durP1;ratioP1;P1;durP2;ratioP2;P2;SDS_P1;SDS_P2;PMS_P1;PMS_P2;Temp;Humidity;BMP_temperature;BMP_pressure;BME280_temperature;BME280_humidity;BME280_pressure;Samples;Min_cycle;Max_cycle;Signal;HPM_P1;HPM_P2
2022/04/18 00:00:51;;;;;;;16.63;8.27;;;;;;;3.85;67.65;101753.03;2075600;28;20830;-63
2022/04/18 00:01:55;;;;;;;16.50;7.57;;;;;;;3.88;67.66;101753.44;2089724;28;20785;-64
2022/04/18 00:02:59;;;;;;;16.40;8.03;;;;;;;3.91;67.53;101753.03;2089003;28;20272;-63
2022/04/18 00:04:05;;;;;;;18.13;8.00;;;;;;;3.89;67.67;101752.41;2073822;28;20299;-64
2022/04/18 00:05:09;;;;;;;19.20;8.13;;;;;;;3.92;67.56;101756.50;2074705;28;20361;-63
2022/04/18 00:06:11;;;;;;;19.77;7.97;;;;;;;3.95;67.88;101750.78;2081503;28;20284;-64
2022/04/18 00:07:16;;;;;;;18.37;7.77;;;;;;;3.95;67.25;101751.59;2075805;28;20305;-63
2022/04/18 00:08:21;;;;;;;20.33;8.63;;;;;;;3.95;67.73;101756.91;2074063;28;21066;-64
2022/04/18 00:09:23;;;;;;;17.77;7.87;;;;;;;3.95;66.80;101756.91;2081820;28;20308;-63
2022/04/18 00:10:32;;;;;;;15.80;7.93;;;;;;;3.94;66.99;101757.94;2081743;28;20300;-63
2022/04/18 00:11:36;;;;;;;17.10;7.67;;;;;;;3.92;66.90;101745.88;2090119;28;20290;-63
2022/04/18 00:12:42;;;;;;;14.00;7.70;;;;;;;3.92;67.50;101754.66;2090934;28;20294;-64
2022/04/18 00:13:44;;;;;;;15.23;7.27;;;;;;;3.91;67.39;101747.72;2097635;28;20290;-64
2022/04/18 00:14:49;;;;;;;16.73;8.13;;;;;;;3.89;66.99;101744.44;2088969;28;20326;-63
2022/04/18 00:15:53;;;;;;;16.83;8.30;;;;;;;3.86;67.29;101742.19;2081536;28;20652;-62
2022/04/18 00:16:55;;;;;;;14.90;6.97;;;;;;;3.86;67.33;101742.19;2074998;28;20293;-63
2022/04/18 00:18:00;;;;;;;16.37;8.33;;;;;;;3.86;67.15;101739.53;2082308;28;20295;-65
2022/04/18 00:19:02;;;;;;;18.50;8.10;;;;;;;3.79;67.12;101744.03;2081420;28;20667;-63
2022/04/18 00:20:05;;;;;;;15.87;7.70;;;;;;;3.77;67.05;101740.75;2073814;28;20281;-63
2022/04/18 00:21:14;;;;;;;16.43;7.63;;;;;;;3.76;67.18;101746.28;2057842;28;20781;-62
2022/04/18 00:22:17;;;;;;;16.27;7.20;;;;;;;3.76;67.17;101738.31;2061104;28;20657;-62
2022/04/18 00:23:19;;;;;;;17.23;7.50;;;;;;;3.74;67.70;101735.00;2081642;28;20303;-62
2022/04/18 00:24:23;;;;;;;17.03;7.57;;;;;;;3.75;67.65;101736.63;2089666;28;20290;-63
2022/04/18 00:25:26;;;;;;;16.13;7.33;;;;;;;3.77;66.93;101735.41;2090834;28;20294;-63
2022/04/18 00:26:31;;;;;;;14.73;7.67;;;;;;;3.78;67.19;101734.38;2090621;28;20291;-62
2022/04/18 00:27:33;;;;;;;16.40;8.07;;;;;;;3.79;66.80;101730.72;2081195;28;20288;-62
2022/04/18 00:28:38;;;;;;;14.63;7.30;;;;;;;3.78;67.46;101725.59;2074188;28;20657;-62
2022/04/18 00:29:41;;;;;;;17.33;7.30;;;;;;;3.79;66.84;101722.75;2082366;28;20655;-61
2022/04/18 00:30:45;;;;;;;16.77;7.33;;;;;;;3.75;66.97;101729.47;2065920;28;20312;-62
2022/04/18 00:31:49;;;;;;;14.57;6.67;;;;;;;3.70;67.17;101723.97;2065835;28;20296;-61
2022/04/18 00:32:57;;;;;;;16.10;6.93;;;;;;;3.71;67.22;101723.75;2065917;28;20292;-62
2022/04/18 00:34:00;;;;;;;12.33;6.20;;;;;;;3.72;67.03;101727.25;2074876;28;20288;-62
2022/04/18 00:35:07;;;;;;;13.77;6.17;;;;;;;3.71;67.15;101725.59;2090001;28;20817;-61
2022/04/18 00:36:15;;;;;;;14.23;6.15;;;;;;;3.73;66.69;101731.53;2081625;28;20296;-62
2022/04/18 00:37:20;;;;;;;14.27;6.37;;;;;;;3.71;67.24;101731.72;2066344;28;20054;-62
2022/04/18 00:38:23;;;;;;;11.70;6.00;;;;;;;3.72;66.99;101725.41;2074330;28;20285;-63
2022/04/18 00:39:27;;;;;;;11.73;5.50;;;;;;;3.72;67.08;101721.94;2081251;28;20288;-62
2022/04/18 00:40:29;;;;;;;11.80;5.53;;;;;;;3.74;67.21;101721.72;2073571;28;20839;-62
2022/04/18 00:41:33;;;;;;;13.10;5.67;;;;;;;3.74;67.34;101727.84;2066268;28;20345;-62
2022/04/18 00:42:35;;;;;;;12.63;6.17;;;;;;;3.72;67.13;101727.25;2065590;28;20289;-61
2022/04/18 00:43:48;;;;;;;11.60;5.10;;;;;;;3.69;66.93;101719.69;2082041;28;20806;-61
2022/04/18 00:44:54;;;;;;;12.90;5.50;;;;;;;3.68;66.91;101715.34;2073236;28;20277;-61
2022/04/18 00:45:58;;;;;;;12.67;5.97;;;;;;;3.66;67.23;101714.78;2066901;28;20292;-61
2022/04/18 00:47:07;;;;;;;10.73;5.70;;;;;;;3.57;67.79;101710.66;2081939;28;20268;-62
2022/04/18 00:48:10;;;;;;;12.57;6.10;;;;;;;3.59;67.76;101711.25;2081650;28;20291;-62
2022/04/18 00:49:12;;;;;;;12.53;5.90;;;;;;;3.60;67.71;101713.75;2081500;28;20516;-62
2022/04/18 00:50:17;;;;;;;13.83;6.30;;;;;;;3.60;67.07;101710.25;2073419;28;20360;-62
2022/04/18 00:51:25;;;;;;;13.70;6.27;;;;;;;3.60;67.61;101713.75;2057695;28;20674;-62
2022/04/18 00:52:33;;;;;;;15.40;6.10;;;;;;;3.61;67.45;101710.03;2074464;28;20285;-61
2022/04/18 00:53:37;;;;;;;13.00;6.07;;;;;;;3.65;67.46;101715.78;2065184;28;20305;-62
2022/04/18 00:54:42;;;;;;;16.40;6.80;;;;;;;3.65;67.68;101710.44;2064761;28;20285;-61
2022/04/18 00:55:45;;;;;;;15.80;6.60;;;;;;;3.64;67.78;101714.16;2082272;28;20284;-61
2022/04/18 00:56:49;;;;;;;16.07;6.50;;;;;;;3.62;67.69;101711.66;2082113;28;20295;-62
2022/04/18 00:57:58;;;;;;;15.17;6.80;;;;;;;3.62;67.69;101710.84;2081294;28;20280;-61
2022/04/18 00:59:03;;;;;;;14.50;6.23;;;;;;;3.63;67.58;101717.84;2074948;28;20672;-61
2022/04/18 01:00:08;;;;;;;14.87;6.37;;;;;;;3.64;67.43;101708.81;2073996;28;20786;-62
2022/04/18 01:01:10;;;;;;;14.70;6.33;;;;;;;3.67;67.69;101708.41;2074080;28;20293;-61
2022/04/18 01:02:17;;;;;;;14.77;6.53;;;;;;;3.68;67.45;101715.34;2073683;28;20296;-62
2022/04/18 01:03:21;;;;;;;16.10;6.43;;;;;;;3.67;67.11;101708.41;2066254;28;20300;-60
2022/04/18 01:04:24;;;;;;;11.27;5.80;;;;;;;3.66;67.26;101718.25;2066844;28;20282;-62
2022/04/18 01:05:30;;;;;;;13.30;6.27;;;;;;;3.62;67.21;101710.84;2065875;28;20273;-63
2022/04/18 01:06:33;;;;;;;15.90;6.70;;;;;;;3.60;67.33;101713.75;2074411;28;20292;-62
2022/04/18 01:07:39;;;;;;;14.07;6.80;;;;;;;3.61;67.34;101703.91;2081179;28;20269;-63
2022/04/18 01:08:48;;;;;;;12.97;6.20;;;;;;;3.61;67.12;101712.69;2074337;28;20756;-62
2022/04/18 01:09:56;;;;;;;13.80;6.88;;;;;;;3.51;67.78;101708.81;2074289;28;20841;-63
2022/04/18 01:11:05;;;;;;;16.70;6.77;;;;;;;3.44;67.61;101712.28;2075049;28;20058;-63
2022/04/18 01:12:28;;;;;;;13.87;6.40;;;;;;;3.34;67.99;101713.69;2076306;28;20295;-63
2022/04/18 01:14:02;;;;;;;15.80;7.00;;;;;;;3.29;68.02;101711.66;2079187;28;20288;-62
2022/04/18 01:15:33;;;;;;;12.07;5.97;;;;;;;3.23;68.52;101710.59;2074103;28;21025;-62
2022/04/18 01:16:46;;;;;;;14.27;6.37;;;;;;;3.23;68.66;101710.59;2083676;28;20284;-63
2022/04/18 01:18:09;;;;;;;16.30;6.00;;;;;;;3.28;68.52;101707.38;2075681;28;20657;-62
2022/04/18 01:19:32;;;;;;;13.97;5.97;;;;;;;3.28;68.86;101702.03;2080989;28;20296;-62
2022/04/18 01:20:36;;;;;;;14.03;6.23;;;;;;;3.29;68.86;101705.50;2073123;28;20289;-62
2022/04/18 01:21:51;;;;;;;13.13;5.60;;;;;;;3.28;68.85;101703.84;2060650;28;20313;-62
2022/04/18 01:23:16;;;;;;;12.87;5.97;;;;;;;3.20;68.89;101696.91;2082671;28;20288;-62
2022/04/18 01:28:59;;;;;;;12.53;5.63;;;;;;;3.42;68.87;101701.03;2081028;28;20299;-62
2022/04/18 01:30:04;;;;;;;13.90;5.97;;;;;;;3.44;68.77;101704.31;2073433;28;20762;-62
2022/04/18 01:31:11;;;;;;;10.90;5.20;;;;;;;3.46;68.72;101702.25;2081393;28;20299;-63
2022/04/18 01:32:21;;;;;;;12.80;5.30;;;;;;;3.47;68.93;101706.56;2082547;28;20288;-63
2022/04/18 01:33:24;;;;;;;10.67;5.30;;;;;;;3.46;68.80;101707.56;2089490;28;20287;-62
2022/04/18 01:34:30;;;;;;;15.47;5.70;;;;;;;3.43;68.69;101700.00;2073352;28;20284;-62
2022/04/18 01:35:37;;;;;;;12.73;6.03;;;;;;;3.39;69.11;101698.78;2073108;28;20293;-63
2022/04/18 01:36:45;;;;;;;12.73;5.60;;;;;;;3.39;69.08;101701.44;2081387;28;20307;-62
2022/04/18 01:37:49;;;;;;;13.47;5.30;;;;;;;3.40;69.32;101691.63;2081261;28;20690;-63
2022/04/18 01:38:53;;;;;;;12.13;5.83;;;;;;;3.41;69.22;101699.41;2056860;28;20309;-62
2022/04/18 01:39:58;;;;;;;9.47;4.90;;;;;;;3.40;68.97;101700.41;2067517;28;20292;-62
2022/04/18 01:41:01;;;;;;;9.77;5.07;;;;;;;3.40;69.26;101692.44;2081175;28;20280;-62
2022/04/18 01:42:08;;;;;;;12.33;5.13;;;;;;;3.41;68.95;101694.09;2065374;28;20285;-62
2022/04/18 01:43:11;;;;;;;10.20;5.10;;;;;;;3.45;69.13;101694.50;2058546;28;20306;-61
2022/04/18 01:44:18;;;;;;;10.53;5.40;;;;;;;3.46;69.06;101696.94;2057917;28;20305;-62
2022/04/18 01:45:20;;;;;;;10.50;4.67;;;;;;;3.49;69.28;101696.53;2057492;28;20294;-61
2022/04/18 01:46:34;;;;;;;10.43;4.93;;;;;;;3.51;69.12;101700.84;2066368;28;20294;-62
2022/04/18 01:47:40;;;;;;;10.13;5.27;;;;;;;3.51;68.83;101698.19;2075891;28;20289;-61
2022/04/18 01:48:42;;;;;;;12.53;5.00;;;;;;;3.52;68.99;101699.81;2088917;28;20300;-61
2022/04/18 01:49:44;;;;;;;8.53;4.60;;;;;;;3.53;68.87;101698.78;2081574;28;20279;-62
2022/04/18 01:50:48;;;;;;;10.70;4.53;;;;;;;3.48;69.17;101700.22;2081689;28;20311;-61
2022/04/18 01:51:52;;;;;;;8.27;4.30;;;;;;;3.49;69.78;101693.06;2080955;28;20288;-62
2022/04/18 01:52:54;;;;;;;15.67;5.50;;;;;;;3.45;69.46;101692.66;2057128;28;20286;-62
2022/04/18 01:53:57;;;;;;;8.43;4.40;;;;;;;3.46;69.66;101694.28;2048967;28;20639;-62
2022/04/18 01:55:07;;;;;;;11.80;4.50;;;;;;;3.45;69.51;101689.16;2066889;28;20282;-62
2022/04/18 01:56:14;;;;;;;7.90;4.60;;;;;;;3.42;69.41;101685.06;2080768;28;20276;-62
2022/04/18 01:57:19;;;;;;;10.70;4.80;;;;;;;3.42;69.64;101687.72;2088616;28;20671;-61
2022/04/18 01:58:25;;;;;;;11.30;4.70;;;;;;;3.40;69.27;101687.09;2080908;28;20782;-60
2022/04/18 01:59:29;;;;;;;8.87;4.83;;;;;;;3.36;69.18;101675.25;2065156;28;20289;-62
2022/04/18 02:00:35;;;;;;;9.87;4.97;;;;;;;3.35;69.38;101678.94;2073287;28;20303;-61
2022/04/18 02:01:38;;;;;;;9.23;4.23;;;;;;;3.31;69.50;101680.38;2064667;28;20292;-61
2022/04/18 02:02:47;;;;;;;8.57;4.30;;;;;;;3.25;69.59;101678.53;2070359;28;20285;-61
2022/04/18 02:03:50;;;;;;;11.00;4.10;;;;;;;3.17;70.02;101676.03;2071607;28;20300;-61
2022/04/18 02:04:52;;;;;;;8.43;3.83;;;;;;;3.18;70.15;101678.50;2063769;28;20285;-61
2022/04/18 02:05:57;;;;;;;8.90;3.73;;;;;;;3.19;70.51;101676.69;2062786;28;20296;-62
2022/04/18 02:07:04;;;;;;;6.30;3.70;;;;;;;3.22;70.65;101674.44;2079940;28;20756;-62
2022/04/18 02:08:11;;;;;;;7.83;3.57;;;;;;;3.27;70.53;101681.78;2079375;28;20456;-62
2022/04/18 02:09:17;;;;;;;6.33;3.80;;;;;;;3.29;70.73;101679.75;2080242;28;20288;-62
2022/04/18 02:10:19;;;;;;;9.60;3.27;;;;;;;3.31;70.57;101683.03;2079233;28;20783;-62
2022/04/18 02:11:29;;;;;;;6.03;3.10;;;;;;;3.33;70.50;101683.63;2064488;28;20696;-62
2022/04/18 02:12:34;;;;;;;5.13;3.00;;;;;;;3.32;70.27;101679.34;2074046;28;20324;-62
2022/04/18 02:13:41;;;;;;;6.53;3.07;;;;;;;3.35;70.84;101676.28;2064456;28;20292;-62
2022/04/18 02:14:48;;;;;;;7.80;3.03;;;;;;;3.39;70.98;101680.16;2057818;28;20986;-62
2022/04/18 02:15:50;;;;;;;5.10;2.90;;;;;;;3.36;71.23;101677.09;2064697;28;20042;-62
2022/04/18 02:16:56;;;;;;;6.87;3.30;;;;;;;3.36;70.71;101682.41;2070364;28;20718;-62
2022/04/18 02:17:58;;;;;;;5.90;3.33;;;;;;;3.36;71.16;101675.25;2071920;28;20288;-62
2022/04/18 02:19:00;;;;;;;5.40;2.97;;;;;;;3.38;70.71;101675.88;2071380;28;20292;-62
2022/04/18 02:20:12;;;;;;;4.97;3.07;;;;;;;3.37;70.80;101673.41;2079944;28;20296;-62
2022/04/18 02:21:19;;;;;;;7.57;3.20;;;;;;;3.38;70.57;101672.41;2087539;28;20746;-63
2022/04/18 02:22:25;;;;;;;7.90;3.60;;;;;;;3.36;70.67;101669.94;2086407;28;20296;-63
2022/04/18 02:23:29;;;;;;;8.17;3.10;;;;;;;3.38;70.86;101667.91;2079740;28;20342;-63
2022/04/18 02:24:33;;;;;;;8.10;3.67;;;;;;;3.39;70.58;101674.84;2071696;28;20721;-63
2022/04/18 02:25:38;;;;;;;6.53;3.53;;;;;;;3.38;70.64;101667.91;2072321;28;20301;-62
2022/04/18 02:26:48;;;;;;;6.13;3.47;;;;;;;3.33;70.77;101661.56;2073043;28;20637;-63
2022/04/18 02:27:56;;;;;;;4.70;2.77;;;;;;;3.33;70.41;101665.03;2073014;28;20295;-63
2022/04/18 02:28:58;;;;;;;5.13;2.80;;;;;;;3.34;70.61;101666.69;2072206;28;20344;-62
2022/04/18 02:30:01;;;;;;;5.57;3.40;;;;;;;3.34;70.81;101664.03;2063072;28;20302;-61
2022/04/18 02:31:04;;;;;;;5.13;2.70;;;;;;;3.36;70.99;101661.97;2071974;28;20753;-62
2022/04/18 02:33:33;;;;;;;5.50;3.10;;;;;;;3.38;70.82;101661.78;2061197;28;20300;-62
2022/04/18 02:34:38;;;;;;;5.80;3.33;;;;;;;3.36;70.67;101658.50;2064465;28;20297;-61
2022/04/18 02:35:44;;;;;;;6.57;3.23;;;;;;;3.36;70.89;101661.97;2071220;28;20288;-61
2022/04/18 02:36:49;;;;;;;7.50;3.50;;;;;;;3.34;71.01;101658.72;2071925;28;20803;-61
2022/04/18 02:37:56;;;;;;;6.77;3.37;;;;;;;3.32;70.93;101652.75;2072275;28;20645;-61
2022/04/18 02:39:15;;;;;;;6.23;3.20;;;;;;;3.29;70.83;101661.16;2057276;28;20868;-61
2022/04/18 02:40:17;;;;;;;5.87;3.50;;;;;;;3.29;70.90;101653.16;2065865;28;20289;-61
2022/04/18 02:41:21;;;;;;;9.43;3.80;;;;;;;3.28;70.96;101650.69;2071075;28;20392;-61
2022/04/18 02:42:26;;;;;;;8.60;3.50;;;;;;;3.28;70.92;101656.84;2064033;28;20804;-62
2022/04/18 02:43:33;;;;;;;11.80;3.43;;;;;;;3.30;70.73;101649.47;2056353;28;20290;-63
2022/04/18 02:44:46;;;;;;;9.87;3.43;;;;;;;3.29;70.66;101657.66;2056597;28;20294;-63
2022/04/18 02:45:52;;;;;;;7.13;3.40;;;;;;;3.28;70.85;101650.69;2067939;28;20278;-63
2022/04/18 02:47:04;;;;;;;6.73;3.13;;;;;;;3.27;70.76;101654.38;2079484;28;20310;-62
2022/04/18 02:48:07;;;;;;;6.80;3.47;;;;;;;3.26;71.15;101648.25;2065188;28;20645;-62
2022/04/18 02:49:18;;;;;;;5.60;3.20;;;;;;;3.26;70.92;101653.56;2065504;28;20298;-62
2022/04/18 02:50:23;;;;;;;5.57;3.10;;;;;;;3.27;71.11;101657.03;2079255;28;20288;-62
2022/04/18 02:51:27;;;;;;;5.53;2.93;;;;;;;3.28;71.04;101651.53;2071716;28;20292;-62
2022/04/18 02:52:33;;;;;;;6.20;3.10;;;;;;;3.29;71.16;101642.53;2070749;28;20289;-62
2022/04/18 02:53:37;;;;;;;6.43;3.30;;;;;;;3.30;71.36;101646.00;2071444;28;20299;-63
2022/04/18 02:54:44;;;;;;;8.17;3.37;;;;;;;3.31;71.33;101650.28;2072078;28;20304;-62
2022/04/18 02:55:48;;;;;;;7.87;3.30;;;;;;;3.31;71.47;101645.81;2071184;28;20359;-62
2022/04/18 02:56:50;;;;;;;5.33;3.30;;;;;;;3.32;71.41;101652.75;2079263;28;20345;-61
2022/04/18 02:57:52;;;;;;;5.87;3.07;;;;;;;3.33;71.36;101649.06;2066666;28;20292;-62
2022/04/18 02:58:56;;;;;;;6.87;3.50;;;;;;;3.33;71.52;101648.25;2071635;28;20311;-62
2022/04/18 03:00:01;;;;;;;6.53;2.83;;;;;;;3.33;71.53;101649.06;2079598;28;20276;-61
2022/04/18 03:01:04;;;;;;;6.60;3.30;;;;;;;3.29;71.48;101647.84;2071921;28;20296;-61
2022/04/18 03:02:08;;;;;;;6.27;3.17;;;;;;;3.25;71.66;101651.94;2072175;28;20459;-61
2022/04/18 03:03:13;;;;;;;6.20;3.10;;;;;;;3.21;71.85;101643.53;2071814;28;20289;-62
2022/04/18 03:04:20;;;;;;;7.73;3.30;;;;;;;3.25;71.88;101646.63;2072393;28;20289;-62
2022/04/18 03:05:24;;;;;;;6.97;3.53;;;;;;;3.26;71.70;101648.25;2072202;28;20281;-62
2022/04/18 03:06:28;;;;;;;7.93;3.60;;;;;;;3.25;72.04;101644.78;2071077;28;20297;-62
2022/04/18 03:07:33;;;;;;;8.43;3.37;;;;;;;3.28;72.10;101643.56;2063557;28;20666;-62
2022/04/18 03:08:38;;;;;;;9.47;3.43;;;;;;;3.25;71.99;101641.31;2058958;28;20290;-63
2022/04/18 03:09:40;;;;;;;6.43;2.87;;;;;;;3.19;72.20;101642.94;2072925;28;20304;-63
2022/04/18 03:12:06;;;;;;;5.80;3.33;;;;;;;3.03;72.59;101640.66;2069709;28;20811;-63
2022/04/18 03:13:08;;;;;;;5.87;3.10;;;;;;;3.02;72.83;101645.13;2064089;28;20285;-63
2022/04/18 03:14:12;;;;;;;4.93;2.63;;;;;;;3.03;72.78;101646.00;2064783;28;20285;-63
2022/04/18 03:15:18;;;;;;;4.57;3.00;;;;;;;3.07;73.00;101644.56;2072835;28;20404;-63
2022/04/18 03:16:20;;;;;;;4.87;3.10;;;;;;;3.12;73.15;101641.28;2071585;28;20280;-63
2022/04/18 03:17:23;;;;;;;5.90;3.10;;;;;;;3.14;73.21;101637.41;2056297;28;20325;-62
2022/04/18 03:18:25;;;;;;;5.37;2.90;;;;;;;3.19;73.19;101636.81;2065694;28;20753;-63
2022/04/18 03:19:29;;;;;;;6.40;2.87;;;;;;;3.22;73.00;101636.41;2073970;28;20300;-62
2022/04/18 03:20:34;;;;;;;7.03;2.80;;;;;;;3.24;72.96;101644.97;2066886;28;20897;-64
2022/04/18 03:21:37;;;;;;;6.67;3.10;;;;;;;3.23;73.02;101638.03;2073963;28;20299;-63
2022/04/18 03:22:45;;;;;;;6.32;3.42;;;;;;;3.26;73.10;101634.97;2083524;28;20284;-63
2022/04/18 03:23:57;;;;;;;5.78;3.15;;;;;;;3.26;72.88;101642.94;2075318;28;20390;-63
2022/04/18 03:25:23;;;;;;;9.47;3.00;;;;;;;3.23;72.58;101638.03;2072138;28;20060;-63
2022/04/18 03:26:29;;;;;;;6.43;3.00;;;;;;;3.27;72.85;101630.47;2079017;28;20294;-63
2022/04/18 03:27:39;;;;;;;5.13;3.20;;;;;;;3.22;72.83;101629.25;2073750;28;20773;-63
2022/04/18 03:28:41;;;;;;;6.07;2.93;;;;;;;3.25;72.93;101639.47;2066023;28;20298;-63
2022/04/18 03:29:45;;;;;;;4.87;2.80;;;;;;;3.29;72.57;101634.56;2066478;28;20313;-63
2022/04/18 03:30:55;;;;;;;7.00;3.00;;;;;;;3.29;72.84;101637.22;2068843;28;20308;-62
2022/04/18 03:31:58;;;;;;;8.27;3.83;;;;;;;3.31;72.36;101637.84;2072911;28;20289;-63
2022/04/18 03:33:10;;;;;;;6.50;3.10;;;;;;;3.31;72.26;101639.66;2081943;28;20287;-63
2022/04/18 03:34:18;;;;;;;7.97;3.20;;;;;;;3.30;72.23;101643.34;2082098;28;20304;-63
2022/04/18 03:35:25;;;;;;;5.77;2.83;;;;;;;3.26;72.12;101634.97;2074296;28;20288;-63
2022/04/18 03:40:32;;;;;;;7.77;2.90;;;;;;;3.29;72.79;101639.88;2076148;28;20780;-63
2022/04/18 03:41:41;;;;;;;5.97;3.27;;;;;;;3.26;72.68;101642.94;2074656;28;20788;-62
2022/04/18 03:42:45;;;;;;;9.10;3.47;;;;;;;3.27;72.73;101641.91;2051609;28;20299;-62
2022/04/18 03:43:54;;;;;;;4.73;2.80;;;;;;;3.29;73.08;101631.91;2068140;28;20661;-63
2022/04/18 03:45:03;;;;;;;8.33;3.20;;;;;;;3.34;72.75;101634.78;2074885;28;20293;-63
2022/04/18 03:46:06;;;;;;;6.03;3.30;;;;;;;3.34;72.84;101639.25;2065893;28;20344;-64
2022/04/18 03:47:11;;;;;;;7.27;3.10;;;;;;;3.32;72.92;101636.00;2073814;28;20289;-63
2022/04/18 03:48:16;;;;;;;5.97;3.07;;;;;;;3.33;73.02;101637.63;2081973;28;20276;-63
2022/04/18 03:49:21;;;;;;;8.13;3.17;;;;;;;3.34;72.89;101636.59;2082938;28;20268;-63
2022/04/18 03:50:27;;;;;;;8.33;2.93;;;;;;;3.41;72.92;101630.28;2081976;28;20291;-63
2022/04/18 03:51:36;;;;;;;5.50;2.90;;;;;;;3.48;73.14;101631.09;2066446;28;20285;-63
2022/04/18 03:52:47;;;;;;;9.20;3.43;;;;;;;3.60;73.06;101625.97;2074882;28;20316;-63
2022/04/18 03:54:11;;;;;;;7.13;2.90;;;;;;;3.71;72.95;101627.19;2068941;28;20293;-62
2022/04/18 03:55:21;;;;;;;5.47;3.10;;;;;;;3.73;72.53;101617.16;2066948;28;20290;-64
2022/04/18 03:56:27;;;;;;;6.20;3.00;;;;;;;3.85;72.69;101626.16;2060379;28;20293;-64
2022/04/18 03:57:44;;;;;;;6.75;3.20;;;;;;;4.07;72.22;101628.56;2070867;28;20301;-63
2022/04/18 03:58:49;;;;;;;4.73;2.97;;;;;;;4.16;72.03;101622.81;2084005;28;20054;-63
2022/04/18 03:59:53;;;;;;;6.50;3.00;;;;;;;4.34;71.93;101622.09;2073462;28;21627;-63
2022/04/18 04:00:59;;;;;;;5.53;3.17;;;;;;;4.53;71.50;101616.91;2043626;28;20295;-63
2022/04/18 04:02:01;;;;;;;7.90;3.13;;;;;;;4.73;71.15;101620.31;2050769;28;20302;-63
2022/04/18 04:03:07;;;;;;;7.17;3.30;;;;;;;4.92;69.77;101626.56;2074562;28;20281;-63
2022/04/18 04:04:16;;;;;;;5.53;2.92;;;;;;;5.09;69.31;101625.00;2071910;28;20293;-64
2022/04/18 04:05:19;;;;;;;5.43;3.20;;;;;;;5.26;69.24;101621.78;2052001;28;20062;-62
2022/04/18 04:06:24;;;;;;;5.03;3.10;;;;;;;5.39;67.88;101615.53;2066604;28;20282;-62
2022/04/18 04:07:27;;;;;;;6.47;2.97;;;;;;;5.50;67.38;101622.84;2065634;28;20732;-62
2022/04/18 04:08:46;;;;;;;7.70;3.37;;;;;;;5.65;66.37;101615.31;2053877;28;20294;-62
2022/04/18 04:09:49;;;;;;;7.70;3.10;;;;;;;5.77;66.40;101618.09;2060644;28;20301;-62
2022/04/18 04:10:55;;;;;;;5.10;3.30;;;;;;;5.91;65.47;101618.75;2058446;28;20290;-63
2022/04/18 04:12:03;;;;;;;5.17;3.00;;;;;;;6.00;65.13;101622.81;2067219;28;20645;-63
2022/04/18 04:13:12;;;;;;;6.43;3.07;;;;;;;6.16;64.84;101624.06;2074666;28;20352;-63
2022/04/18 04:14:55;;;;;;;4.97;2.83;;;;;;;6.31;63.95;101631.72;2075586;28;20311;-62
2022/04/18 04:16:04;;;;;;;6.33;2.70;;;;;;;6.41;63.61;101630.13;2069448;28;20292;-62
2022/04/18 04:17:06;;;;;;;5.97;3.03;;;;;;;6.53;63.11;101627.53;2074789;28;20288;-62
2022/04/18 04:18:11;;;;;;;8.03;3.07;;;;;;;6.61;63.09;101619.19;2073340;28;20704;-62
2022/04/18 04:19:16;;;;;;;5.57;3.07;;;;;;;6.74;62.52;101629.69;2058774;28;20302;-63
2022/04/18 04:20:19;;;;;;;5.57;2.97;;;;;;;6.86;62.73;101631.59;2073857;28;20292;-63
2022/04/18 04:21:25;;;;;;;4.43;3.03;;;;;;;6.98;61.98;101629.78;2077520;28;20288;-63
2022/04/18 04:22:36;;;;;;;5.82;2.67;;;;;;;7.08;61.74;101618.53;2068137;28;20286;-64
2022/04/18 04:23:58;;;;;;;5.40;3.03;;;;;;;7.21;61.40;101629.03;2078701;28;20045;-62
2022/04/18 04:25:10;;;;;;;6.57;3.10;;;;;;;7.34;60.84;101623.47;2066847;28;20282;-62
2022/04/18 04:26:19;;;;;;;5.70;2.93;;;;;;;7.44;60.87;101622.91;2052229;28;20295;-62
2022/04/18 04:27:30;;;;;;;6.70;3.08;;;;;;;7.57;60.69;101630.72;2053328;28;20351;-62
2022/04/18 04:28:38;;;;;;;7.00;2.95;;;;;;;7.72;60.15;101629.44;2077259;28;20509;-62
2022/04/18 04:29:41;;;;;;;6.07;3.10;;;;;;;7.80;59.67;101631.75;2081565;28;20292;-62
2022/04/18 04:30:57;;;;;;;5.82;2.92;;;;;;;7.95;59.82;101625.94;2073025;28;20289;-62
2022/04/18 04:32:01;;;;;;;4.78;2.80;;;;;;;8.07;59.27;101627.56;2066237;28;20289;-62
2022/04/18 04:33:06;;;;;;;5.32;2.97;;;;;;;8.21;58.76;101627.28;2058681;28;20310;-63
2022/04/18 04:34:16;;;;;;;7.97;3.20;;;;;;;8.29;58.31;101619.72;2058583;28;20339;-61
2022/04/18 04:35:26;;;;;;;4.93;2.60;;;;;;;8.46;58.50;101622.47;2077004;28;20316;-62
2022/04/18 04:36:39;;;;;;;4.90;3.00;;;;;;;8.49;57.71;101621.19;2081594;28;20295;-62
2022/04/18 04:37:48;;;;;;;6.70;2.97;;;;;;;8.31;57.77;101617.59;2074226;28;20281;-62
2022/04/18 04:39:11;;;;;;;3.78;2.30;;;;;;;8.41;57.90;101619.69;2077111;28;20300;-62
2022/04/18 04:40:19;;;;;;;6.35;2.92;;;;;;;8.47;58.13;101618.72;2069500;28;20672;-64
2022/04/18 04:41:24;;;;;;;6.50;2.95;;;;;;;8.61;58.28;101615.75;2065535;28;20685;-63
2022/04/18 04:42:37;;;;;;;4.40;2.53;;;;;;;8.83;58.29;101619.41;2067764;28;20290;-62
2022/04/18 04:43:41;;;;;;;3.95;2.55;;;;;;;9.00;57.87;101614.88;2066109;28;20352;-62
2022/04/18 04:44:47;;;;;;;4.57;2.70;;;;;;;9.19;57.61;101612.78;2074002;28;20296;-62
2022/04/18 04:45:57;;;;;;;4.50;2.53;;;;;;;9.36;56.77;101612.78;2074275;28;20637;-62
2022/04/18 04:47:04;;;;;;;5.03;2.47;;;;;;;9.51;56.94;101613.03;2066901;28;20034;-62
2022/04/18 04:48:10;;;;;;;6.28;2.67;;;;;;;9.68;55.89;101614.91;2073727;28;20281;-64
2022/04/18 04:49:22;;;;;;;5.20;2.45;;;;;;;9.80;55.82;101615.59;2091364;28;20283;-62
2022/04/18 04:50:40;;;;;;;4.18;2.58;;;;;;;9.96;55.38;101614.75;2088779;28;20290;-61
2022/04/18 04:51:44;;;;;;;4.38;2.72;;;;;;;10.08;54.99;101608.44;2082066;28;20529;-63
2022/04/18 04:52:50;;;;;;;5.45;2.97;;;;;;;10.15;54.51;101607.22;2074466;28;20304;-63
2022/04/18 04:54:03;;;;;;;6.03;3.20;;;;;;;10.29;54.92;101605.00;2082563;28;20280;-63
2022/04/18 04:55:11;;;;;;;8.57;3.25;;;;;;;10.44;54.43;101610.53;2074725;28;20289;-64
2022/04/18 04:56:21;;;;;;;5.85;3.08;;;;;;;10.55;53.71;101608.78;2083757;28;20288;-62
2022/04/18 04:57:23;;;;;;;5.72;3.15;;;;;;;10.45;52.69;101608.66;2088935;28;20295;-63
2022/04/18 04:59:03;;;;;;;8.07;3.17;;;;;;;10.56;52.96;101614.97;2077630;28;20276;-62
2022/04/18 05:00:05;;;;;;;7.55;3.75;;;;;;;10.67;52.29;101612.13;2071231;28;20281;-62
2022/04/18 05:01:27;;;;;;;6.70;3.70;;;;;;;10.84;51.67;101612.03;2080897;28;20676;-62
2022/04/18 05:02:42;;;;;;;10.10;3.70;;;;;;;10.94;51.52;101610.50;2095769;28;20033;-62
2022/04/18 05:03:45;;;;;;;8.48;4.22;;;;;;;11.02;51.11;101607.34;2072867;28;20311;-65
2022/04/18 05:04:48;;;;;;;7.32;3.83;;;;;;;10.75;50.43;101608.19;2074608;28;20281;-64
2022/04/18 05:05:54;;;;;;;9.80;3.95;;;;;;;10.62;50.77;101608.56;2089359;28;20284;-63
2022/04/18 05:07:19;;;;;;;7.28;3.20;;;;;;;10.83;51.11;101606.91;2079105;28;20295;-62
2022/04/18 05:08:42;;;;;;;8.50;3.78;;;;;;;10.99;51.92;101603.28;2079961;28;20660;-62
2022/04/18 05:09:47;;;;;;;6.68;3.72;;;;;;;11.16;51.56;101605.88;2074868;28;20387;-62
2022/04/18 05:10:59;;;;;;;8.00;4.00;;;;;;;11.43;51.94;101613.88;2072125;28;20300;-62
2022/04/18 05:12:38;;;;;;;5.63;3.33;;;;;;;11.63;50.67;101615.09;2077586;28;20760;-62
2022/04/18 05:13:46;;;;;;;5.53;3.15;;;;;;;11.85;50.34;101614.97;2069152;28;20049;-62
2022/04/18 05:15:00;;;;;;;7.80;3.33;;;;;;;12.06;49.84;101617.53;2050282;28;20780;-62
2022/04/18 05:16:09;;;;;;;6.18;3.05;;;;;;;11.83;49.80;101621.41;2059479;28;20405;-62
2022/04/18 05:17:18;;;;;;;4.50;2.72;;;;;;;12.04;50.51;101613.47;2056832;28;20313;-62
2022/04/18 05:18:29;;;;;;;5.45;2.30;;;;;;;12.26;50.14;101610.59;2061663;28;20046;-62
2022/04/18 05:19:37;;;;;;;3.72;2.28;;;;;;;12.26;50.09;101611.44;2063595;28;20301;-63
2022/04/18 05:20:58;;;;;;;4.50;2.38;;;;;;;12.35;49.93;101613.59;2061598;28;20292;-62
2022/04/18 05:22:04;;;;;;;3.42;2.25;;;;;;;12.49;49.82;101614.75;2072338;28;20841;-62
2022/04/18 05:23:15;;;;;;;4.90;2.25;;;;;;;12.73;49.55;101615.06;2080445;28;20287;-62
2022/04/18 05:24:17;;;;;;;6.18;2.13;;;;;;;12.73;49.38;101617.75;2087433;28;20060;-62
2022/04/18 05:25:21;;;;;;;6.00;2.58;;;;;;;12.88;49.59;101611.56;2088049;28;20295;-62
2022/04/18 05:26:27;;;;;;;3.22;2.05;;;;;;;13.12;49.06;101604.59;2087754;28;20682;-61